createdAt,value
2018-12-09T00:01:54.500Z,75.45
2018-12-09T00:04:24.167Z,75.52
2018-12-09T00:06:54.100Z,76.07
2018-12-09T00:09:23.684Z,75.10
2018-12-09T00:11:53.249Z,75.25
2018-12-09T00:14:22.876Z,75.32
2018-12-09T00:16:52.481Z,75.49
2018-12-09T00:19:22.068Z,75.73
2018-12-09T00:21:51.700Z,76.39
2018-12-09T00:24:21.327Z,76.18
2018-12-09T00:26:52.172Z,76.68
2018-12-09T00:29:21.754Z,76.09
2018-12-09T00:31:51.366Z,77.01
2018-12-09T00:34:20.945Z,76.54
2018-12-09T00:36:50.537Z,76.61
2018-12-09T00:39:21.046Z,76.87
2018-12-09T00:41:50.642Z,76.63
2018-12-09T00:44:20.238Z,76.12
2018-12-09T00:46:49.823Z,75.50
2018-12-09T00:49:19.414Z,75.75
2018-12-09T00:51:48.986Z,76.23
2018-12-09T00:54:18.619Z,77.02
2018-12-09T00:56:48.250Z,77.89
2018-12-09T00:59:17.881Z,79.16
2018-12-09T01:01:47.523Z,79.73
2018-12-09T01:04:17.263Z,80.11
2018-12-09T01:06:47.130Z,80.55
2018-12-09T01:09:16.705Z,81.27
2018-12-09T01:11:46.285Z,80.92
2018-12-09T01:14:15.983Z,81.67
2018-12-09T01:16:45.725Z,81.24
2018-12-09T01:19:15.338Z,81.19
2018-12-09T01:21:44.924Z,81.37
2018-12-09T01:24:14.565Z,81.33
2018-12-09T01:26:44.193Z,80.73
2018-12-09T01:29:13.922Z,80.97
2018-12-09T01:31:43.646Z,81.03
2018-12-09T01:34:13.248Z,81.72
2018-12-09T01:36:43.503Z,81.65
2018-12-09T01:39:13.067Z,81.78
2018-12-09T01:41:42.643Z,81.24
2018-12-09T01:44:12.231Z,80.95
2018-12-09T01:46:42.654Z,81.03
2018-12-09T01:49:12.262Z,81.00
2018-12-09T01:51:41.844Z,82.05
2018-12-09T01:54:12.290Z,81.93
2018-12-09T01:56:41.910Z,82.46
2018-12-09T01:59:11.802Z,82.14
2018-12-09T02:01:41.699Z,81.86
2018-12-09T02:04:11.353Z,82.01
2018-12-09T02:06:41.651Z,81.18
2018-12-09T02:09:11.874Z,81.01
2018-12-09T02:11:41.477Z,80.62
2018-12-09T02:14:11.254Z,81.41
2018-12-09T02:16:41.064Z,81.86
2018-12-09T02:19:18.450Z,81.88
2018-12-09T02:21:48.006Z,82.42
2018-12-09T02:24:17.982Z,82.84
2018-12-09T02:31:38.090Z,84.30
2018-12-09T02:34:08.157Z,84.90
2018-12-09T02:36:38.237Z,84.33
2018-12-09T02:39:08.870Z,85.72
2018-12-09T02:41:38.765Z,85.78
2018-12-09T02:44:08.346Z,86.33
2018-12-09T02:46:38.609Z,85.40
2018-12-09T02:49:08.593Z,85.16
2018-12-09T02:51:38.293Z,84.54
2018-12-09T02:54:08.070Z,84.11
2018-12-09T02:56:38.150Z,83.92
2018-12-09T02:59:08.018Z,83.18
2018-12-09T03:01:37.862Z,82.04
2018-12-09T03:04:07.478Z,82.14
2018-12-09T03:06:37.092Z,81.48
2018-12-09T03:09:07.181Z,81.26
2018-12-09T03:11:37.017Z,80.50
2018-12-09T03:14:06.658Z,80.45
2018-12-09T03:16:36.301Z,80.00
2018-12-09T03:19:05.984Z,79.74
2018-12-09T03:21:35.585Z,79.52
2018-12-09T03:24:05.179Z,79.19
2018-12-09T03:26:34.826Z,79.20
2018-12-09T03:29:04.419Z,78.94
2018-12-09T03:31:34.287Z,78.89
2018-12-09T03:34:04.115Z,79.00
2018-12-09T03:36:33.699Z,78.89
2018-12-09T03:39:04.123Z,78.47
2018-12-09T03:41:33.752Z,78.33
2018-12-09T03:44:03.359Z,78.17
2018-12-09T03:46:32.990Z,77.37
2018-12-09T03:49:02.643Z,78.12
2018-12-09T03:51:32.267Z,77.38
2018-12-09T03:54:01.881Z,78.06
2018-12-09T03:56:31.475Z,77.63
2018-12-09T03:59:01.117Z,77.70
2018-12-09T04:01:30.726Z,77.47
2018-12-09T04:04:00.369Z,77.08
2018-12-09T04:06:30.329Z,77.62
2018-12-09T04:09:00.114Z,77.58
2018-12-09T04:11:30.328Z,76.64
2018-12-09T04:14:00.197Z,77.37
2018-12-09T04:16:29.957Z,77.86
2018-12-09T04:18:59.550Z,77.64
2018-12-09T04:21:29.788Z,78.10
2018-12-09T04:23:59.432Z,77.76
2018-12-09T04:26:29.012Z,77.98
2018-12-09T04:28:58.613Z,77.71
2018-12-09T04:31:28.235Z,77.86
2018-12-09T04:33:57.823Z,78.40
2018-12-09T04:36:27.661Z,78.59
2018-12-09T04:38:57.312Z,78.29
2018-12-09T04:41:27.117Z,79.00
2018-12-09T04:43:56.686Z,79.42
2018-12-09T04:46:26.298Z,79.45
2018-12-09T04:48:55.881Z,79.80
2018-12-09T04:54:16.632Z,80.39
2018-12-09T04:56:47.756Z,80.77
2018-12-09T04:59:20.375Z,81.30
2018-12-09T05:01:49.960Z,80.60
2018-12-09T05:04:19.873Z,80.38
2018-12-09T05:06:49.499Z,80.51
2018-12-09T05:09:19.057Z,80.63
2018-12-09T05:11:49.117Z,81.04
2018-12-09T05:14:18.938Z,80.86
2018-12-09T05:16:48.593Z,80.65
2018-12-09T05:19:18.227Z,81.03
2018-12-09T05:21:47.812Z,80.31
2018-12-09T05:24:17.434Z,80.81
2018-12-09T05:26:47.362Z,81.15
2018-12-09T05:29:17.221Z,81.11
2018-12-09T05:31:47.068Z,81.46
2018-12-09T05:34:17.427Z,81.85
2018-12-09T05:36:47.016Z,82.05
2018-12-09T05:39:16.583Z,82.46
2018-12-09T05:41:46.254Z,82.72
2018-12-09T05:44:15.861Z,83.06
2018-12-09T05:46:45.419Z,83.49
2018-12-09T05:49:15.079Z,83.95
2018-12-09T05:51:44.666Z,84.53
2018-12-09T05:54:14.367Z,84.08
2018-12-09T05:56:43.919Z,84.39
2018-12-09T05:59:13.600Z,84.37
2018-12-09T06:01:43.306Z,84.10
2018-12-09T06:04:12.903Z,84.00
2018-12-09T06:06:43.321Z,83.52
2018-12-09T06:09:12.898Z,83.67
2018-12-09T06:11:42.765Z,84.09
2018-12-09T06:14:12.332Z,83.85
2018-12-09T06:16:41.905Z,83.82
2018-12-09T06:19:11.494Z,83.54
2018-12-09T06:21:41.131Z,83.92
2018-12-09T06:24:10.984Z,84.04
2018-12-09T06:26:40.588Z,84.10
2018-12-09T06:29:10.643Z,84.62
2018-12-09T06:31:40.303Z,84.34
2018-12-09T06:34:09.889Z,84.32
2018-12-09T06:36:39.462Z,84.35
2018-12-09T06:39:09.074Z,84.53
2018-12-09T06:41:38.647Z,84.59
2018-12-09T06:44:08.243Z,84.43
2018-12-09T06:46:37.811Z,84.92
2018-12-09T06:49:07.425Z,84.39
2018-12-09T06:51:37.453Z,83.89
2018-12-09T06:54:07.049Z,84.28
2018-12-09T06:56:36.608Z,84.20
2018-12-09T06:59:06.253Z,84.00
2018-12-09T07:01:35.856Z,84.11
2018-12-09T07:04:05.509Z,83.82
2018-12-09T07:06:35.077Z,83.30
2018-12-09T07:09:05.838Z,83.19
2018-12-09T07:11:35.669Z,82.84
2018-12-09T07:14:05.837Z,82.99
2018-12-09T07:16:35.419Z,83.22
2018-12-09T07:19:05.045Z,83.42
2018-12-09T07:21:34.674Z,83.50
2018-12-09T07:24:04.328Z,83.58
2018-12-09T07:26:33.955Z,83.68
2018-12-09T07:29:03.522Z,83.74
2018-12-09T07:31:33.120Z,83.96
2018-12-09T07:34:02.663Z,84.50
2018-12-09T07:36:34.003Z,84.32
2018-12-09T07:39:04.028Z,84.41
2018-12-09T07:41:33.652Z,84.40
2018-12-09T07:44:03.260Z,84.17
2018-12-09T07:46:32.935Z,83.74
2018-12-09T07:49:02.566Z,83.79
2018-12-09T07:51:32.163Z,83.28
2018-12-09T07:54:01.874Z,83.54
2018-12-09T07:56:31.458Z,83.69
2018-12-09T07:59:01.108Z,83.25
2018-12-09T08:01:30.730Z,83.27
2018-12-09T08:04:00.326Z,82.89
2018-12-09T08:06:29.926Z,82.58
2018-12-09T08:08:59.516Z,82.48
2018-12-09T08:11:29.086Z,82.01
2018-12-09T08:13:58.665Z,82.12
2018-12-09T08:16:28.251Z,81.98
2018-12-09T08:18:57.921Z,82.49
2018-12-09T08:21:27.550Z,81.98
2018-12-09T08:23:57.211Z,81.96
2018-12-09T08:26:26.802Z,81.96
2018-12-09T08:28:56.364Z,82.81
2018-12-09T08:31:25.961Z,82.60
2018-12-09T08:33:55.554Z,82.85
2018-12-09T08:36:25.914Z,83.54
2018-12-09T08:38:56.497Z,82.79
2018-12-09T08:41:26.066Z,82.98
2018-12-09T08:43:55.673Z,82.54
2018-12-09T08:46:25.298Z,83.26
2018-12-09T08:48:54.892Z,83.23
2018-12-09T08:51:24.463Z,83.29
2018-12-09T08:53:54.152Z,83.42
2018-12-09T08:56:23.739Z,83.64
2018-12-09T08:58:53.409Z,83.79
2018-12-09T09:01:23.362Z,83.60
2018-12-09T09:03:53.174Z,84.14
2018-12-09T09:06:22.783Z,83.77
2018-12-09T09:08:52.442Z,84.00
2018-12-09T09:11:22.016Z,83.96
2018-12-09T09:13:51.595Z,85.04
2018-12-09T09:16:22.088Z,82.47
2018-12-09T09:18:51.658Z,80.19
2018-12-09T09:21:21.232Z,80.44
2018-12-09T09:23:50.816Z,81.41
2018-12-09T09:26:20.406Z,82.45
2018-12-09T09:28:49.995Z,83.38
2018-12-09T09:31:19.609Z,83.91
2018-12-09T09:33:49.434Z,84.75
2018-12-09T09:36:19.007Z,84.77
2018-12-09T09:38:48.692Z,84.67
2018-12-09T09:41:18.355Z,84.30
2018-12-09T09:43:47.929Z,84.49
2018-12-09T09:46:18.562Z,84.32
2018-12-09T09:48:48.412Z,84.95
2018-12-09T09:54:24.315Z,85.02
2018-12-09T09:56:53.975Z,85.49
2018-12-09T09:59:23.622Z,85.57
2018-12-09T10:01:55.137Z,85.87
2018-12-09T10:04:24.701Z,85.51
2018-12-09T10:06:54.357Z,85.63
2018-12-09T10:09:24.224Z,85.78
2018-12-09T10:11:53.897Z,85.43
2018-12-09T10:14:23.635Z,85.12
2018-12-09T10:16:53.234Z,85.35
2018-12-09T10:19:22.832Z,85.69
2018-12-09T10:21:52.513Z,85.65
2018-12-09T10:24:22.138Z,85.62
2018-12-09T10:26:51.740Z,85.60
2018-12-09T10:29:21.311Z,86.49
2018-12-09T10:31:54.041Z,86.18
2018-12-09T10:34:23.655Z,86.41
2018-12-09T10:36:55.276Z,86.25
2018-12-09T10:39:24.938Z,86.16
2018-12-09T10:41:54.531Z,86.16
2018-12-09T10:44:24.109Z,85.92
2018-12-09T10:46:54.061Z,86.32
2018-12-09T10:49:23.737Z,85.84
2018-12-09T10:51:53.614Z,85.92
2018-12-09T10:54:23.206Z,85.86
2018-12-09T10:56:52.840Z,86.12
2018-12-09T10:59:28.415Z,85.84
2018-12-09T11:02:05.251Z,86.07
2018-12-09T11:04:34.846Z,85.66
2018-12-09T11:07:04.474Z,85.59
2018-12-09T11:09:34.053Z,86.16
2018-12-09T11:12:03.635Z,85.59
2018-12-09T11:14:33.250Z,85.84
2018-12-09T11:17:10.544Z,85.85
2018-12-09T11:19:40.881Z,86.05
2018-12-09T11:22:11.097Z,85.80
2018-12-09T11:24:40.852Z,85.63
2018-12-09T11:27:21.295Z,86.00
2018-12-09T11:29:50.856Z,86.30
2018-12-09T11:32:20.558Z,85.79
2018-12-09T11:34:50.199Z,86.24
2018-12-09T11:37:20.792Z,85.57
2018-12-09T11:40:00.161Z,85.48
2018-12-09T11:42:29.848Z,85.41
2018-12-09T11:44:59.430Z,85.59
2018-12-09T11:47:29.378Z,85.45
2018-12-09T11:49:59.032Z,85.21
2018-12-09T11:52:28.894Z,85.56
2018-12-09T11:54:58.530Z,85.97
2018-12-09T12:00:35.254Z,85.72
2018-12-09T12:03:04.939Z,85.34
2018-12-09T12:05:52.970Z,86.19
2018-12-09T12:08:25.330Z,86.29
2018-12-09T12:10:56.702Z,85.60
2018-12-09T12:13:29.808Z,85.81
2018-12-09T12:16:05.083Z,85.95
2018-12-09T12:18:42.417Z,85.90
2018-12-09T12:21:17.692Z,85.45
2018-12-09T12:23:47.303Z,85.89
2018-12-09T12:26:17.290Z,85.75
2018-12-09T12:28:46.962Z,85.14
2018-12-09T12:31:16.545Z,85.50
2018-12-09T12:34:10.386Z,85.86
2018-12-09T12:36:42.434Z,86.05
2018-12-09T12:39:12.461Z,85.66
2018-12-09T12:41:42.020Z,85.82
2018-12-09T12:44:11.670Z,85.20
2018-12-09T12:46:41.304Z,85.59
2018-12-09T12:49:14.135Z,86.00
2018-12-09T12:51:45.655Z,85.24
2018-12-09T12:54:20.922Z,85.72
2018-12-09T12:56:53.028Z,85.30
2018-12-09T12:59:24.357Z,85.05
2018-12-09T13:02:24.486Z,85.15
2018-12-09T13:04:54.119Z,85.71
2018-12-09T13:07:23.777Z,85.71
2018-12-09T13:09:53.389Z,85.53
2018-12-09T13:12:22.960Z,84.93
2018-12-09T13:14:52.748Z,85.21
2018-12-09T13:17:24.125Z,85.50
2018-12-09T13:19:53.929Z,85.07
2018-12-09T13:22:23.806Z,85.08
2018-12-09T13:24:53.580Z,85.36
2018-12-09T13:27:23.582Z,85.33
2018-12-09T13:29:53.580Z,85.53
2018-12-09T13:32:23.419Z,85.19
2018-12-09T13:34:53.364Z,84.85
2018-12-09T13:37:23.248Z,84.95
2018-12-09T13:39:52.902Z,84.86
2018-12-09T13:42:22.506Z,84.62
2018-12-09T13:44:52.168Z,84.94
2018-12-09T13:47:22.030Z,84.40
2018-12-09T13:49:51.747Z,84.24
2018-12-09T13:52:21.593Z,84.28
2018-12-09T13:54:51.532Z,83.65
2018-12-09T13:57:21.288Z,84.18
2018-12-09T13:59:51.799Z,84.63
2018-12-09T14:02:22.375Z,84.27
2018-12-09T14:04:53.576Z,84.73
2018-12-09T14:07:23.492Z,84.06
2018-12-09T14:09:53.086Z,84.31
2018-12-09T14:12:23.644Z,84.46
2018-12-09T14:14:54.775Z,84.14
2018-12-09T14:17:24.351Z,83.80
2018-12-09T14:19:53.984Z,83.70
2018-12-09T14:22:25.526Z,83.93
2018-12-09T14:24:55.223Z,83.56
2018-12-09T14:27:25.081Z,83.44
2018-12-09T14:29:54.808Z,83.65
2018-12-09T14:32:24.401Z,83.50
2018-12-09T14:34:57.566Z,83.35
2018-12-09T14:37:27.442Z,83.13
2018-12-09T14:39:57.004Z,83.21
2018-12-09T14:42:27.689Z,83.20
2018-12-09T14:44:57.325Z,83.06
2018-12-09T14:47:27.107Z,83.15
2018-12-09T14:49:56.683Z,83.18
2018-12-09T14:52:26.309Z,83.25
2018-12-09T14:54:55.911Z,83.17
2018-12-09T14:57:25.518Z,82.99
2018-12-09T14:59:55.096Z,83.15
2018-12-09T15:02:24.688Z,83.03
2018-12-09T15:04:54.385Z,83.55
2018-12-09T15:07:23.990Z,83.19
2018-12-09T15:09:53.842Z,83.15
2018-12-09T15:12:23.874Z,82.99
2018-12-09T15:14:53.481Z,83.25
2018-12-09T15:17:24.116Z,83.30
2018-12-09T15:19:53.715Z,82.99
2018-12-09T15:22:24.771Z,81.98
2018-12-09T15:24:54.434Z,82.56
2018-12-09T15:27:24.815Z,82.76
2018-12-09T15:29:55.296Z,82.63
2018-12-09T15:32:24.857Z,82.49
2018-12-09T15:34:54.447Z,82.13
2018-12-09T15:37:24.036Z,82.15
2018-12-09T15:39:53.613Z,82.15
2018-12-09T15:42:23.189Z,81.23
2018-12-09T15:44:53.985Z,81.43
2018-12-09T15:47:23.563Z,80.29
2018-12-09T15:49:56.050Z,80.05
2018-12-09T15:52:26.587Z,80.32
2018-12-09T15:54:57.412Z,80.25
2018-12-09T15:57:27.059Z,79.77
2018-12-09T15:59:56.662Z,79.91
2018-12-09T16:02:26.240Z,80.05
2018-12-09T16:04:57.362Z,80.73
2018-12-09T16:07:27.269Z,81.02
2018-12-09T16:09:56.901Z,81.07
2018-12-09T16:12:26.471Z,81.09
2018-12-09T16:14:56.496Z,80.99
2018-12-09T16:17:26.449Z,81.84
2018-12-09T16:19:56.276Z,82.20
2018-12-09T16:22:26.626Z,81.88
2018-12-09T16:24:56.378Z,82.03
2018-12-09T16:27:26.323Z,81.95
2018-12-09T16:29:56.061Z,82.40
2018-12-09T16:32:25.943Z,82.52
2018-12-09T16:34:55.743Z,82.91
2018-12-09T16:37:26.199Z,82.72
2018-12-09T16:39:55.770Z,82.42
2018-12-09T16:42:25.357Z,83.00
2018-12-09T16:44:55.058Z,82.45
2018-12-09T16:47:24.639Z,82.17
2018-12-09T16:49:54.235Z,81.96
2018-12-09T16:52:23.824Z,82.26
2018-12-09T16:54:53.443Z,82.30
2018-12-09T16:57:23.040Z,83.31
2018-12-09T16:59:52.612Z,82.55
2018-12-09T17:02:22.218Z,82.74
2018-12-09T17:04:51.910Z,82.76
2018-12-09T17:07:21.578Z,82.88
2018-12-09T17:09:51.181Z,82.04
2018-12-09T17:12:20.890Z,81.76
2018-12-09T17:14:53.353Z,81.46
2018-12-09T17:17:22.982Z,80.66
2018-12-09T17:19:52.581Z,80.90
2018-12-09T17:22:22.152Z,80.42
2018-12-09T17:24:53.340Z,80.23
2018-12-09T17:27:22.911Z,81.43
2018-12-09T17:29:52.505Z,80.76
2018-12-09T17:32:22.074Z,81.23
2018-12-09T17:34:51.705Z,81.27
2018-12-09T17:37:21.306Z,81.53
2018-12-09T17:39:50.896Z,81.77
2018-12-09T17:42:20.487Z,81.51
2018-12-09T17:44:50.506Z,82.18
2018-12-09T17:47:20.084Z,82.75
2018-12-09T17:49:49.663Z,82.31
2018-12-09T17:52:19.262Z,81.97
2018-12-09T17:54:48.874Z,82.32
2018-12-09T17:57:18.456Z,83.02
2018-12-09T17:59:48.027Z,83.97
2018-12-09T18:02:17.630Z,84.25
2018-12-09T18:04:47.231Z,84.70
2018-12-09T18:07:16.950Z,84.58
2018-12-09T18:09:46.640Z,84.33
2018-12-09T18:12:16.263Z,85.08
2018-12-09T18:14:45.879Z,84.97
2018-12-09T18:17:15.469Z,84.14
2018-12-09T18:19:45.354Z,84.74
2018-12-09T18:22:19.926Z,84.47
2018-12-09T18:24:50.059Z,84.53
2018-12-09T18:27:19.638Z,84.89
2018-12-09T18:29:49.270Z,85.28
2018-12-09T18:32:18.932Z,85.50
2018-12-09T18:34:49.078Z,85.16
2018-12-09T18:37:18.721Z,84.89
2018-12-09T18:39:48.707Z,84.42
2018-12-09T18:42:18.280Z,84.32
2018-12-09T18:44:47.996Z,84.07
2018-12-09T18:47:17.606Z,84.37
2018-12-09T18:49:47.433Z,84.45
2018-12-09T18:52:17.015Z,84.05
2018-12-09T18:54:46.705Z,84.37
2018-12-09T18:57:16.323Z,83.66
2018-12-09T18:59:45.921Z,83.98
2018-12-09T19:02:15.533Z,83.40
2018-12-09T19:04:45.177Z,83.33
2018-12-09T19:07:14.991Z,83.25
2018-12-09T19:09:44.634Z,83.11
2018-12-09T19:12:14.359Z,82.30
2018-12-09T19:14:43.951Z,81.77
2018-12-09T19:17:13.561Z,81.88
2018-12-09T19:19:43.427Z,81.62
2018-12-09T19:22:13.019Z,81.49
2018-12-09T19:24:42.659Z,81.51
2018-12-09T19:30:19.402Z,80.74
2018-12-09T19:32:50.082Z,81.01
2018-12-09T19:35:19.737Z,80.60
2018-12-09T19:37:50.582Z,80.32
2018-12-09T19:40:22.127Z,80.95
2018-12-09T19:43:00.434Z,80.69
2018-12-09T19:45:30.535Z,80.70
2018-12-09T19:48:00.811Z,80.48
2018-12-09T19:50:30.656Z,80.19
2018-12-09T19:53:00.208Z,79.58
2018-12-09T19:55:29.841Z,79.77
2018-12-09T19:57:59.416Z,79.76
2018-12-09T20:00:29.064Z,79.12
2018-12-09T20:02:58.710Z,77.62
2018-12-09T20:05:28.292Z,78.37
2018-12-09T20:07:57.885Z,77.98
2018-12-09T20:10:27.592Z,78.00
2018-12-09T20:12:57.191Z,77.27
2018-12-09T20:15:26.867Z,77.75
2018-12-09T20:17:56.565Z,77.59
2018-12-09T20:20:26.166Z,77.26
2018-12-09T20:22:55.791Z,76.84
2018-12-09T20:25:25.714Z,77.28
2018-12-09T20:28:00.343Z,77.36
2018-12-09T20:30:44.283Z,76.70
2018-12-09T20:33:14.235Z,76.93
2018-12-09T20:35:44.000Z,77.08
2018-12-09T20:38:14.515Z,77.01
2018-12-09T20:40:44.160Z,77.60
2018-12-09T20:43:16.004Z,77.11
2018-12-09T20:45:45.927Z,77.49
2018-12-09T20:48:17.106Z,78.04
2018-12-09T20:50:46.844Z,78.39
2018-12-09T20:53:23.796Z,77.81
2018-12-09T20:56:01.717Z,77.91
2018-12-09T20:58:32.034Z,78.59
2018-12-09T21:01:03.831Z,78.86
2018-12-09T21:03:33.923Z,78.75
2018-12-09T21:06:04.286Z,78.75
2018-12-09T21:08:39.045Z,78.79
2018-12-09T21:11:09.044Z,78.23
2018-12-09T21:13:39.696Z,78.48
2018-12-09T21:16:10.370Z,78.85
2018-12-09T21:18:43.823Z,78.23
2018-12-09T21:21:13.934Z,78.00
2018-12-09T21:23:45.590Z,78.33
2018-12-09T21:26:15.237Z,78.09
2018-12-09T21:28:44.871Z,78.16
2018-12-09T21:31:14.480Z,78.31
2018-12-09T21:33:44.391Z,78.41
2018-12-09T21:36:16.385Z,78.36
2018-12-09T21:38:45.993Z,77.60
2018-12-09T21:41:15.601Z,78.38
2018-12-09T21:43:45.845Z,77.92
2018-12-09T21:46:16.025Z,77.96
2018-12-09T21:48:45.691Z,78.62
2018-12-09T21:51:23.925Z,78.21
2018-12-09T21:53:53.548Z,78.27
2018-12-09T21:56:23.246Z,78.88
2018-12-09T21:58:52.853Z,78.76
2018-12-09T22:01:22.473Z,78.67
2018-12-09T22:03:52.118Z,78.81
2018-12-09T22:06:21.737Z,78.83
2018-12-09T22:08:53.546Z,78.58
2018-12-09T22:11:23.186Z,78.46
2018-12-09T22:13:52.898Z,78.85
2018-12-09T22:16:25.152Z,78.58
2018-12-09T22:18:55.052Z,77.60
2018-12-09T22:21:24.729Z,77.66
2018-12-09T22:23:56.795Z,76.78
2018-12-09T22:26:26.459Z,77.06
2018-12-09T22:28:56.044Z,77.03
2018-12-09T22:31:25.631Z,76.88
2018-12-09T22:33:55.215Z,77.24
2018-12-09T22:36:25.314Z,77.55
2018-12-09T22:38:54.928Z,77.39
2018-12-09T22:41:24.560Z,76.98
2018-12-09T22:43:54.200Z,76.37
2018-12-09T22:46:23.793Z,77.11
2018-12-09T22:48:53.385Z,77.48
2018-12-09T22:51:22.989Z,77.37
2018-12-09T22:53:52.852Z,76.89
2018-12-09T22:56:22.454Z,76.86
2018-12-09T22:58:52.026Z,76.91
2018-12-09T23:01:21.675Z,76.94
2018-12-09T23:03:51.273Z,76.65
2018-12-09T23:06:21.238Z,77.15
2018-12-09T23:08:50.852Z,76.68
2018-12-09T23:11:20.483Z,76.44
2018-12-09T23:13:50.135Z,76.65
2018-12-09T23:16:19.740Z,76.52
2018-12-09T23:18:49.338Z,76.73
2018-12-09T23:21:18.950Z,76.25
2018-12-09T23:23:48.533Z,76.76
2018-12-09T23:26:18.125Z,76.43
2018-12-09T23:28:47.750Z,76.39
2018-12-09T23:31:17.718Z,75.96
2018-12-09T23:33:47.327Z,76.28
2018-12-09T23:36:17.028Z,76.42
2018-12-09T23:38:46.997Z,76.31
2018-12-09T23:41:16.672Z,75.71
2018-12-09T23:43:46.298Z,75.88
2018-12-09T23:46:15.935Z,75.62
2018-12-09T23:48:45.562Z,75.81
2018-12-09T23:51:15.211Z,75.34
2018-12-09T23:53:45.018Z,76.53
2018-12-09T23:56:14.696Z,76.32
2018-12-09T23:58:44.274Z,76.16
